ADDS METAR Data INFO
IDs: Format: Raw Decoded Include TAF

Data at: 0021 UTC 17 Dec 2017

KICL 170015Z AUTO 00000KT 10SM CLR 00/M06 RMK AO2
KICL 162355Z AUTO 00000KT 10SM 02/M05 RMK AO2
KICL 162335Z AUTO 00000KT 10SM 04/M05 RMK AO2
KICL 162315Z AUTO 00000KT 9SM CLR 05/M04 RMK AO2
KICL 162255Z AUTO 00000KT 10SM CLR 07/M04 RMK AO2
KICL 162235Z AUTO 00000KT 10SM CLR 10/M04 RMK AO2
KICL 162215Z AUTO 00000KT 10SM CLR 11/M04 RMK AO2
KICL 162155Z AUTO 20004KT 10SM CLR 11/M04 RMK AO2
KICL 162135Z AUTO 18004KT 10SM CLR 11/M04 RMK AO2
KICL 162115Z AUTO 17003KT 10SM CLR 11/M04 RMK AO2
KICL 162055Z AUTO 16006KT 10SM CLR 11/M03 RMK AO2
KICL 162035Z AUTO 00000KT 10SM CLR 11/M03 RMK AO2
KICL 162015Z AUTO 21003KT 10SM CLR 11/M04 RMK AO2
KICL 161955Z AUTO VRB04KT 10SM CLR 11/M04 RMK AO2
KICL 161935Z AUTO 19006KT 10SM CLR 11/M03 RMK AO2
KICL 161915Z AUTO VRB04KT 10SM CLR 10/M03 RMK AO2
KICL 161855Z AUTO VRB04KT 10SM CLR 10/M03 RMK AO2
KICL 161835Z AUTO VRB03KT 10SM CLR 10/M03 RMK AO2
KICL 161815Z AUTO 24005KT 10SM CLR 10/M03 RMK AO2
KICL 161755Z AUTO 24005KT 10SM CLR 09/M03 RMK AO2
KICL 161735Z AUTO 24009KT 10SM CLR 09/M04 RMK AO2
KICL 161715Z AUTO 24008KT 10SM CLR 09/M04 RMK AO2
KICL 161655Z AUTO 22008KT 10SM CLR 08/M03 RMK AO2
KICL 161635Z AUTO 21011KT 10SM CLR 07/M03 RMK AO2
KICL 161615Z AUTO 22011KT 10SM CLR 07/M03 RMK AO2
KICL 161555Z AUTO 21007KT 10SM CLR 05/M02 RMK AO2
KICL 161535Z AUTO 20006KT 10SM CLR 03/M02 RMK AO2
KICL 161515Z AUTO 21005KT 10SM CLR 02/M02 RMK AO2
KICL 161455Z AUTO 00000KT 10SM CLR 00/M03 A2984 RMK AO2
KICL 161435Z AUTO 00000KT 10SM CLR M01/M04 A2984 RMK AO2
KICL 161415Z AUTO 20004KT 10SM CLR M02/M04 A2983 RMK AO2
KICL 161355Z AUTO 22005KT 10SM CLR M04/M06 A2982 RMK AO2
KICL 161335Z AUTO 21005KT 10SM CLR M06/M07 RMK AO2
KICL 161315Z AUTO 00000KT 10SM CLR M03/M05 A2982 RMK AO2
KICL 161255Z AUTO 00000KT 10SM M04/M05 A2982 RMK AO2
KICL 161235Z AUTO 20003KT 10SM M05/M06 A2981 RMK AO2
KICL 161215Z AUTO 00000KT 10SM M03/M06 A2980 RMK AO2
KICL 161155Z AUTO 20003KT 10SM CLR M01/M04 A2980 RMK AO2
KICL 161135Z AUTO 19004KT 10SM M01/M04 RMK AO2
KICL 161115Z AUTO 00000KT 10SM SCT042 OVC065 M01/M05 A2979 RMK AO2
KICL 161055Z AUTO 19005KT 10SM OVC065 M01/M04 RMK AO2
KICL 161035Z AUTO 19007KT 10SM OVC060 M00/M04 RMK AO2
KICL 161015Z AUTO 19008KT 10SM OVC060 01/M04 RMK AO2
KICL 160955Z AUTO 19008KT 10SM OVC055 01/M04 A2979 RMK AO2
KICL 160935Z AUTO 19009KT 10SM BKN060 02/M04 A2979 RMK AO2
KICL 160915Z AUTO 19009KT 10SM 01/M04 RMK AO2
KICL 160855Z AUTO 18006KT 10SM 02/M04 A2980 RMK AO2
KICL 160835Z AUTO 18004KT 10SM 01/M04 A2980 RMK AO2
KICL 160815Z AUTO 00000KT 10SM 00/M04 A2979 RMK AO2
KICL 160755Z AUTO 18003KT 10SM 01/M04 RMK AO2
KICL 160735Z AUTO 00000KT 10SM 01/M04 A2980 RMK AO2
KICL 160715Z AUTO 18004KT 10SM 01/M04 A2979 RMK AO2
KICL 160655Z AUTO 00000KT 10SM 01/M04 A2980 RMK AO2
KICL 160635Z AUTO 18004KT 10SM 01/M04 RMK AO2
KICL 160615Z AUTO 18004KT 10SM CLR 02/M04 RMK AO2
KICL 160555Z AUTO 18006KT 10SM 02/M04 A2981 RMK AO2
KICL 160535Z AUTO 18006KT 10SM 02/M04 A2982 RMK AO2
KICL 160515Z AUTO 19007KT 10SM 03/M04 RMK AO2
KICL 160455Z AUTO 19008KT 10SM 03/M04 RMK AO2
KICL 160435Z AUTO 20008KT 10SM 03/M04 A2981 RMK AO2
KICL 160415Z AUTO 20008KT 10SM 03/M04 RMK AO2
KICL 160355Z AUTO 19007KT 10SM 02/M04 RMK AO2
KICL 160335Z AUTO 19007KT 10SM 02/M04 RMK AO2
KICL 160315Z AUTO 19006KT 10SM 02/M04 RMK AO2
KICL 160255Z AUTO 20008KT 10SM 03/M04 A2983 RMK AO2
KICL 160235Z AUTO 19008KT 10SM 02/M04 A2984 RMK AO2
KICL 160215Z AUTO 19007KT 10SM CLR 02/M04 A2985 RMK AO2
KICL 160155Z AUTO 19009KT 10SM 03/M04 RMK AO2
KICL 160135Z AUTO 19009KT 10SM 03/M04 RMK AO2
KICL 160115Z AUTO 19009KT 10SM 02/M04 A2986 RMK AO2
KICL 160055Z AUTO 19006KT 10SM CLR 02/M04 RMK AO2
KICL 160035Z AUTO 19007KT 10SM CLR 03/M04 RMK AO2
KICL 160015Z AUTO 20005KT 10SM CLR 04/M04 RMK AO2
KICL 152355Z AUTO 20007KT 10SM CLR 05/M04 A2987 RMK AO2
KICL 152335Z AUTO 20009G14KT 10SM CLR 05/M04 RMK AO2
KICL 152315Z AUTO 21008KT 10SM CLR 06/M04 A2988 RMK AO2
KICL 152255Z AUTO 21009G17KT 10SM CLR 06/M04 RMK AO2
KICL 152235Z AUTO 22016G21KT 10SM CLR 08/M04 RMK AO2
KICL 152215Z AUTO 23015G20KT 10SM CLR 08/M04 RMK AO2
KICL 152155Z AUTO 23016G22KT 10SM CLR 08/M04 RMK AO2
KICL 152135Z AUTO 23014G22KT 10SM CLR 09/M04 RMK AO2
KICL 152115Z AUTO 24016G24KT 10SM CLR 09/M04 RMK AO2
KICL 152055Z AUTO 24016G23KT 10SM CLR 09/M04 RMK AO2
KICL 152035Z AUTO 25018G24KT 10SM CLR 09/M05 RMK AO2
KICL 152015Z AUTO 23018G24KT 10SM CLR 09/M05 RMK AO2
KICL 151955Z AUTO 25017G24KT 10SM CLR 08/M06 RMK AO2
KICL 151935Z AUTO 26020G26KT 10SM CLR 08/M06 A2997 RMK AO2
KICL 151915Z AUTO 25016G25KT 10SM CLR 08/M06 RMK AO2
KICL 151855Z AUTO 24017KT CLR 07/M06 RMK AO2
KICL 151835Z AUTO 25015G24KT 10SM CLR 08/M06 RMK AO2
KICL 151815Z AUTO 23016G24KT 10SM CLR 07/M07 RMK AO2
KICL 151755Z AUTO 24017G23KT 10SM CLR 06/M07 A3002 RMK AO2
KICL 151735Z AUTO 25013G22KT 10SM FEW120 06/M06 RMK AO2
KICL 151715Z AUTO 25017KT 10SM BKN120 05/M06 A3006 RMK AO2
KICL 151655Z AUTO 25017KT 10SM BKN110 05/M06 RMK AO2
KICL 151635Z AUTO 26014G21KT 10SM SCT110 04/M06 A3008 RMK AO2
KICL 151615Z AUTO 12.29166712G18KT 10SM FEW050 04/M04 A3009 RMK AO2
KICL 151555Z AUTO 25014KT 10SM SCT050 03/M04 A3010 RMK AO2
KICL 151535Z AUTO 26010G16KT 10SM CLR 03/M04 RMK AO2
KICL 151515Z AUTO 25012KT 10SM SCT055 02/M03 A3009 RMK AO2
KICL 151455Z AUTO 25009KT 10SM OVC055 01/M03 A3009 RMK AO2
KICL 151435Z AUTO 25010KT 10SM OVC055 01/M03 A3010 RMK AO2
KICL 151415Z AUTO 25010KT 10SM OVC055 01/M03 A3010 RMK AO2
KICL 151355Z AUTO 24009KT 10SM OVC055 01/M03 A3010 RMK AO2
KICL 151335Z AUTO 25008KT 10SM OVC050 00/M03 A3010 RMK AO2
KICL 151315Z AUTO 25006KT 10SM OVC050 00/M04 A3010 RMK AO2
KICL 151255Z AUTO 24007KT 10SM OVC050 00/M04 A3010 RMK AO2
KICL 151235Z AUTO 24006KT 10SM OVC050 M00/M04 A3010 RMK AO2